Aérodrome :
LOGIN :

S'inscrire | Disclaimer

   EN    FR    IT 

 










Légende :    VFR   VFR Marginal   IFR   IFR Intensif   IFR Très Intensif
Visi : 
Plafond : 
>= 8 km
>= 3000ft
5 à 8 km
1000 à 3000 ft
1500m à 5 km
500 à 1000 ft
800 à 1500m
200 à 500 ft
< 800m
< 200 ft
Symboles :   Orages  Brouillard  Fortes neiges  Fortes précipitations  Vent > 20 kt
SIGMETs :   Divers  Orages  Givrage  Turbulence  Onde Orograph.  Cendres Volcan.







- Altitude de l'aérodrome : 1036 ft
- Code IATA : ERF


EDDE - Erfurt

DERNIER METAR :
  • 240820Z 24014KT 9999 FEW036 BKN300 14/07 Q1016 TEMPO 24015G25KT

METARs EXPIRÉS :
  • 240750Z 24012KT 9999 FEW036 BKN300 14/07 Q1016 TEMPO 24015G25KT
  • 240720Z 24014KT 210V270 9999 FEW036 BKN300 14/07 Q1016 NOSIG
  • 240650Z 23011KT CAVOK 13/08 Q1016 NOSIG
  • 240620Z 22009KT CAVOK 12/08 Q1016 NOSIG
  • 240550Z 20008KT CAVOK 10/07 Q1016 NOSIG

TAF TAF EDDE
Valide du 24 à 06h jusqu'au 25 à 06h UTC


240500Z 2406/2506 20006KT CAVOK
BECMG 2407/2409 25012KT
TEMPO 2408/2415 25015G25KT
BECMG 2415/2417 25006KT
Pas de NOTAMs connus pour ce terrain.



MET'MAP, la Météo Aéronautique d'un coup d'oeil ! - Copyright ORBIFLY Décembre 2007 - Disclaimer

ORBIFLY MET'MAP TEAM :

Programmation & Développement : Alexandra Zaïnal
Conception & Développement : Baudouin d'Aumeries
Co-Programmation & Développement : Marc-Olivier Méhu
Soutien technique & logistique : Manuel Goepfert

Contact : metmap@orbifly.com




SOURCES & CREDITS :

   NOAA